Time;durP1;ratioP1;P1;durP2;ratioP2;P2;SDS_P1;SDS_P2;PMS_P1;PMS_P2;Temp;Humidity;BMP_temperature;BMP_pressure;BME280_temperature;BME280_humidity;BME280_pressure;Samples;Min_cycle;Max_cycle;Signal;HPM_P1;HPM_P2
2021/04/05 00:00:00;;;;;;;2.55;1.00;;;11.30;49.30;11.50;99626.00;;;;330559;29;96974;-89
2021/04/05 00:00:16;;;;;;;2.47;0.80;;;11.30;49.40;11.60;99623.00;;;;331589;29;82433;-90
2021/04/05 00:00:28;;;;;;;2.35;0.90;;;11.30;49.40;11.60;99627.00;;;;333290;29;94293;-90
2021/04/05 00:00:40;;;;;;;2.58;0.93;;;11.40;49.40;11.60;99617.00;;;;331358;29;84448;-89
2021/04/05 00:00:51;;;;;;;2.50;0.90;;;11.40;49.40;11.50;99625.00;;;;330694;29;96872;-89
2021/04/05 00:01:03;;;;;;;2.15;0.80;;;11.40;49.30;11.50;99626.00;;;;328095;29;84961;-89
2021/04/05 00:01:14;;;;;;;2.25;0.70;;;11.40;49.30;11.50;99618.00;;;;329449;28;96850;-89
2021/04/05 00:01:26;;;;;;;2.20;0.70;;;11.40;49.30;11.60;99613.00;;;;330201;29;83529;-90
2021/04/05 00:01:37;;;;;;;2.40;0.90;;;11.40;49.30;11.70;99622.00;;;;330669;29;97141;-90
2021/04/05 00:01:48;;;;;;;2.50;1.13;;;11.40;49.20;11.80;99627.00;;;;331276;29;84705;-89
2021/04/05 00:02:00;;;;;;;2.70;1.00;;;11.40;49.20;11.60;99626.00;;;;328095;29;96863;-89
2021/04/05 00:02:11;;;;;;;2.30;1.00;;;11.40;49.20;11.50;99631.00;;;;332703;29;83557;-90
2021/04/05 00:02:23;;;;;;;1.90;0.80;;;11.40;49.40;11.50;99625.00;;;;333287;29;96900;-90
2021/04/05 00:02:34;;;;;;;2.80;1.10;;;11.40;49.50;11.60;99623.00;;;;332651;29;84061;-90
2021/04/05 00:02:46;;;;;;;3.08;1.17;;;11.50;49.60;11.60;99623.00;;;;330811;29;93788;-89
2021/04/05 00:02:59;;;;;;;2.60;1.10;;;11.50;49.50;11.60;99630.00;;;;331355;29;85396;-90
2021/04/05 00:03:10;;;;;;;2.85;0.80;;;11.50;49.50;11.60;99629.00;;;;330748;29;96178;-89
2021/04/05 00:03:22;;;;;;;2.58;0.77;;;11.50;49.50;11.50;99621.00;;;;331153;29;84940;-90
2021/04/05 00:03:34;;;;;;;2.80;0.70;;;11.50;49.40;11.60;99622.00;;;;331908;29;97098;-90
2021/04/05 00:03:45;;;;;;;2.30;0.75;;;11.50;49.50;11.70;99625.00;;;;331422;29;84617;-90
2021/04/05 00:03:57;;;;;;;3.28;1.23;;;11.50;49.50;11.80;99623.00;;;;329315;29;96331;-89
2021/04/05 00:04:09;;;;;;;4.38;1.50;;;11.50;49.50;11.80;99631.00;;;;328740;29;83557;-90
2021/04/05 00:04:20;;;;;;;3.95;1.40;;;11.50;49.30;11.90;99622.00;;;;331713;29;97183;-89
2021/04/05 00:04:32;;;;;;;2.67;0.82;;;11.50;49.10;11.80;99624.00;;;;331334;29;82649;-89
2021/04/05 00:04:48;;;;;;;1.88;0.70;;;11.50;49.10;11.80;99628.00;;;;331933;29;95652;-90
2021/04/05 00:04:59;;;;;;;2.22;0.90;;;11.60;49.30;11.80;99623.00;;;;331451;29;83872;-89
2021/04/05 00:05:17;;;;;;;2.88;0.95;;;11.60;49.20;11.60;99626.00;;;;329276;29;97971;-90
2021/04/05 00:05:35;;;;;;;2.88;0.95;;;11.60;49.30;11.80;99622.00;;;;335059;29;83497;-90
2021/04/05 00:05:46;;;;;;;2.20;0.84;;;11.60;49.20;11.80;99629.00;;;;330533;29;97592;-89
2021/04/05 00:05:57;;;;;;;3.47;0.82;;;11.60;49.10;11.80;99630.00;;;;333692;29;83768;-89
2021/04/05 00:06:09;;;;;;;3.60;0.85;;;11.60;49.10;11.80;99629.00;;;;331364;29;96819;-90
2021/04/05 00:06:22;;;;;;;2.97;0.90;;;11.60;49.10;11.80;99624.00;;;;330912;29;84689;-91
2021/04/05 00:06:33;;;;;;;2.60;0.98;;;11.60;49.00;11.80;99627.00;;;;331527;29;96753;-89
2021/04/05 00:06:44;;;;;;;2.20;0.90;;;11.60;49.00;11.80;99625.00;;;;332268;29;83583;-89
2021/04/05 00:06:57;;;;;;;2.13;0.88;;;11.60;48.90;11.80;99626.00;;;;330145;29;94208;-90
2021/04/05 00:07:10;;;;;;;2.53;0.88;;;11.60;48.90;11.70;99625.00;;;;331655;29;83777;-89
2021/04/05 00:07:21;;;;;;;2.80;0.90;;;11.60;48.90;11.70;99631.00;;;;332770;29;97755;-89
2021/04/05 00:07:33;;;;;;;3.60;0.80;;;11.60;49.10;11.70;99622.00;;;;332670;29;83539;-90
2021/04/05 00:07:45;;;;;;;3.65;0.80;;;11.60;49.10;11.70;99617.00;;;;331721;29;94721;-89
2021/04/05 00:07:56;;;;;;;5.15;1.02;;;11.60;49.20;11.80;99627.00;;;;332387;29;84472;-89
2021/04/05 00:08:08;;;;;;;4.03;1.10;;;11.60;49.20;11.90;99618.00;;;;329078;29;96270;-89
2021/04/05 00:08:19;;;;;;;4.80;1.27;;;11.70;49.20;12.00;99627.00;;;;329823;29;84544;-89
2021/04/05 00:08:31;;;;;;;4.63;1.20;;;11.60;49.70;11.70;99625.00;;;;330414;29;96390;-89
2021/04/05 00:08:43;;;;;;;4.35;0.93;;;11.60;49.10;11.50;99626.00;;;;329643;29;84036;-90
2021/04/05 00:08:54;;;;;;;3.90;0.80;;;11.60;49.20;11.50;99627.00;;;;331727;29;95288;-89
2021/04/05 00:09:06;;;;;;;4.50;0.80;;;11.60;49.10;11.50;99620.00;;;;328331;29;85229;-89
2021/04/05 00:09:17;;;;;;;4.63;0.90;;;11.60;48.80;11.50;99619.00;;;;331529;28;96517;-90
2021/04/05 00:09:29;;;;;;;1.95;0.75;;;11.60;48.80;11.50;99622.00;;;;327341;29;84816;-90
2021/04/05 00:09:41;;;;;;;2.05;1.00;;;11.50;48.70;11.60;99625.00;;;;331694;29;95192;-90
2021/04/05 00:09:52;;;;;;;2.22;1.00;;;11.50;48.80;11.60;99623.00;;;;332259;28;83406;-88
2021/04/05 00:10:10;;;;;;;2.60;0.95;;;11.60;48.80;11.40;99622.00;;;;332342;29;96339;-89
2021/04/05 00:10:40;;;;;;;2.35;1.00;;;11.50;48.90;11.30;99629.00;;;;333572;29;84988;-89
2021/04/05 00:10:54;;;;;;;2.95;0.82;;;11.50;49.00;11.20;99620.00;;;;331592;28;96312;-90
2021/04/05 00:11:05;;;;;;;2.67;0.93;;;11.40;49.10;11.40;99629.00;;;;330967;29;84180;-90
2021/04/05 00:11:17;;;;;;;2.40;0.84;;;11.40;49.10;11.40;99625.00;;;;331545;29;97129;-89
2021/04/05 00:11:29;;;;;;;2.65;0.90;;;11.40;49.10;11.50;99621.00;;;;329744;29;83347;-89
2021/04/05 00:11:40;;;;;;;2.90;1.00;;;11.40;49.10;11.60;99617.00;;;;327799;29;98028;-90
2021/04/05 00:11:52;;;;;;;3.10;1.20;;;11.40;49.20;11.70;99617.00;;;;329773;29;84371;-90
2021/04/05 00:12:04;;;;;;;2.58;1.02;;;11.40;49.20;11.70;99619.00;;;;329161;29;94472;-90
2021/04/05 00:12:15;;;;;;;2.45;0.90;;;11.50;49.20;11.70;99617.00;;;;328484;29;83664;-90
2021/04/05 00:12:27;;;;;;;2.10;0.80;;;11.50;49.30;11.60;99619.00;;;;327873;29;97548;-89
2021/04/05 00:12:38;;;;;;;1.55;0.70;;;11.50;49.30;11.60;99618.00;;;;328444;29;84443;-90
2021/04/05 00:12:54;;;;;;;1.77;0.63;;;11.50;49.40;11.50;99623.00;;;;328927;29;95368;-90
2021/04/05 00:13:13;;;;;;;2.72;0.88;;;11.50;49.40;11.40;99625.00;;;;332208;29;85114;-90
2021/04/05 00:13:30;;;;;;;3.47;0.85;;;11.50;49.50;11.50;99629.00;;;;329054;29;95473;-90
2021/04/05 00:13:42;;;;;;;4.03;1.10;;;11.40;49.50;11.50;99619.00;;;;331019;29;84975;-90
2021/04/05 00:13:54;;;;;;;3.28;1.05;;;11.40;49.30;11.50;99621.00;;;;328982;29;97735;-89
2021/04/05 00:14:06;;;;;;;3.47;0.80;;;11.40;49.30;11.50;99620.00;;;;332225;29;84740;-90
2021/04/05 00:14:17;;;;;;;3.92;0.88;;;11.40;49.50;11.40;99621.00;;;;331601;29;96991;-89
2021/04/05 00:14:29;;;;;;;3.45;0.82;;;11.40;49.50;11.40;99624.00;;;;333558;28;83611;-89
2021/04/05 00:14:41;;;;;;;3.90;1.00;;;11.40;49.50;11.40;99616.00;;;;331523;29;96451;-89
2021/04/05 00:14:54;;;;;;;2.42;1.23;;;11.40;49.60;11.50;99617.00;;;;331037;29;84484;-90
2021/04/05 00:15:08;;;;;;;1.85;1.10;;;11.40;49.50;11.50;99617.00;;;;332978;29;96627;-89
2021/04/05 00:15:19;;;;;;;1.83;1.00;;;11.40;49.50;11.40;99617.00;;;;329713;29;83450;-89
2021/04/05 00:15:30;;;;;;;1.83;0.80;;;11.40;49.50;11.40;99624.00;;;;332587;29;96716;-89
2021/04/05 00:15:42;;;;;;;2.80;0.90;;;11.40;49.50;11.40;99624.00;;;;332222;29;84210;-89
2021/04/05 00:15:55;;;;;;;2.75;0.82;;;11.40;49.70;11.30;99619.00;;;;338207;28;97597;-89
2021/04/05 00:16:06;;;;;;;3.05;1.23;;;11.40;49.40;11.20;99612.00;;;;335773;28;84070;-89
2021/04/05 00:16:19;;;;;;;2.47;1.20;;;11.40;49.50;11.30;99619.00;;;;335872;28;97035;-89
2021/04/05 00:16:31;;;;;;;2.58;1.20;;;11.40;49.50;11.40;99618.00;;;;333424;29;85370;-90
2021/04/05 00:16:42;;;;;;;2.13;0.60;;;11.40;49.50;11.50;99612.00;;;;330306;29;96613;-89
2021/04/05 00:16:56;;;;;;;2.55;0.80;;;11.40;50.00;11.60;99617.00;;;;333553;29;85224;-90
2021/04/05 00:17:07;;;;;;;2.58;0.80;;;11.40;49.50;11.70;99619.00;;;;331530;29;97495;-90
2021/04/05 00:17:19;;;;;;;2.17;0.80;;;11.40;49.60;11.70;99619.00;;;;330951;29;83670;-89
2021/04/05 00:17:30;;;;;;;2.08;0.70;;;11.40;49.60;11.50;99622.00;;;;330302;29;95491;-89
2021/04/05 00:17:41;;;;;;;1.92;0.70;;;11.40;49.60;11.60;99616.00;;;;331097;29;83361;-90
2021/04/05 00:17:54;;;;;;;2.67;0.70;;;11.40;49.60;11.60;99622.00;;;;330336;29;97876;-90
2021/04/05 00:18:05;;;;;;;2.97;0.88;;;11.40;49.50;11.50;99614.00;;;;329810;29;84462;-90
2021/04/05 00:18:17;;;;;;;3.58;0.88;;;11.40;49.40;11.50;99612.00;;;;331590;29;96319;-90
2021/04/05 00:18:28;;;;;;;3.60;0.98;;;11.40;49.40;11.50;99615.00;;;;333537;28;83869;-90
2021/04/05 00:18:40;;;;;;;3.53;0.98;;;11.40;49.40;11.50;99617.00;;;;334056;29;94255;-90
2021/04/05 00:18:51;;;;;;;3.60;1.00;;;11.40;49.30;11.60;99618.00;;;;332335;28;83549;-89
2021/04/05 00:19:03;;;;;;;3.10;0.88;;;11.40;49.40;11.60;99610.00;;;;331220;29;96640;-90
2021/04/05 00:19:14;;;;;;;3.97;1.00;;;11.40;49.40;11.60;99613.00;;;;333375;29;83626;-89
2021/04/05 00:19:26;;;;;;;4.00;1.00;;;11.50;49.40;11.60;99609.00;;;;328998;29;93546;-90
2021/04/05 00:19:42;;;;;;;2.53;0.80;;;11.40;49.40;11.40;99617.00;;;;329713;29;84963;-90
2021/04/05 00:19:54;;;;;;;2.78;0.90;;;11.40;49.50;11.50;99612.00;;;;330133;29;97059;-90
2021/04/05 00:20:13;;;;;;;3.15;1.05;;;11.40;49.60;11.50;99620.00;;;;329693;29;84771;-90
2021/04/05 00:20:33;;;;;;;3.22;1.08;;;11.40;49.50;11.50;99618.00;;;;330175;29;97594;-89
2021/04/05 00:21:01;;;;;;;2.42;0.75;;;11.40;49.60;11.60;99612.00;;;;331021;29;84618;-89
2021/04/05 00:21:21;;;;;;;2.03;0.88;;;11.40;49.50;11.50;99605.00;;;;330322;29;96113;-90
2021/04/05 00:21:32;;;;;;;2.15;0.93;;;11.40;49.80;11.50;99610.00;;;;328480;29;84088;-90
2021/04/05 00:21:43;;;;;;;2.15;0.70;;;11.40;49.80;11.60;99618.00;;;;327906;29;96223;-90
2021/04/05 00:21:56;;;;;;;2.38;0.90;;;11.40;49.70;11.60;99610.00;;;;330944;29;83387;-90
2021/04/05 00:22:08;;;;;;;2.30;1.00;;;11.40;49.70;11.60;99614.00;;;;331517;29;95591;-89
2021/04/05 00:22:19;;;;;;;2.13;0.98;;;11.40;49.60;11.60;99616.00;;;;330690;29;83898;-90
2021/04/05 00:22:30;;;;;;;1.83;0.80;;;11.50;49.70;11.60;99612.00;;;;331504;29;95421;-90
2021/04/05 00:22:43;;;;;;;2.90;0.70;;;11.50;49.60;11.50;99616.00;;;;329760;29;83510;-90
2021/04/05 00:22:56;;;;;;;3.05;0.85;;;11.50;49.60;11.40;99615.00;;;;330510;29;94688;-89
2021/04/05 00:23:08;;;;;;;4.18;0.90;;;11.50;49.80;11.50;99607.00;;;;329688;29;84743;-90
2021/04/05 00:23:20;;;;;;;2.88;0.73;;;11.50;49.80;11.50;99612.00;;;;331683;29;94116;-90
2021/04/05 00:23:31;;;;;;;2.50;0.77;;;11.40;49.60;11.50;99615.00;;;;334835;29;83638;-89
2021/04/05 00:23:42;;;;;;;2.40;0.80;;;11.40;49.50;11.40;99619.00;;;;334211;29;96966;-90
2021/04/05 00:23:55;;;;;;;2.72;0.90;;;11.40;49.50;11.40;99612.00;;;;332337;29;84383;-89
2021/04/05 00:24:07;;;;;;;2.65;1.05;;;11.40;49.40;11.60;99613.00;;;;331768;29;93994;-90
2021/04/05 00:24:18;;;;;;;3.05;1.10;;;11.40;49.40;11.70;99612.00;;;;332326;29;82561;-90
2021/04/05 00:24:30;;;;;;;2.63;0.85;;;11.40;49.50;11.70;99607.00;;;;330240;29;96882;-90
2021/04/05 00:24:41;;;;;;;2.67;0.82;;;11.40;49.50;11.70;99620.00;;;;333640;29;84358;-90
2021/04/05 00:24:52;;;;;;;3.20;0.77;;;11.50;49.60;11.80;99616.00;;;;332965;29;96613;-90
2021/04/05 00:25:06;;;;;;;3.70;1.00;;;11.50;49.70;11.70;99620.00;;;;331428;29;84520;-90
2021/04/05 00:25:17;;;;;;;3.85;1.08;;;11.50;49.60;11.60;99609.00;;;;328821;29;97075;-90
2021/04/05 00:25:29;;;;;;;2.85;1.00;;;11.50;49.70;11.60;99607.00;;;;329686;29;83433;-89
2021/04/05 00:25:40;;;;;;;2.33;0.80;;;11.50;50.20;11.40;99605.00;;;;329155;29;96530;-89
2021/04/05 00:25:52;;;;;;;2.80;0.75;;;11.50;49.50;11.30;99601.00;;;;334858;29;84637;-90
2021/04/05 00:26:03;;;;;;;2.70;0.65;;;11.40;49.60;11.30;99612.00;;;;328906;29;96959;-90
2021/04/05 00:26:15;;;;;;;2.58;0.95;;;11.40;48.90;11.30;99613.00;;;;331076;29;83543;-89
2021/04/05 00:26:26;;;;;;;2.47;1.20;;;11.40;48.90;11.30;99615.00;;;;330353;29;96176;-90
2021/04/05 00:26:37;;;;;;;2.58;1.05;;;11.40;49.10;11.40;99609.00;;;;329743;29;84887;-90
2021/04/05 00:26:49;;;;;;;3.78;0.80;;;11.30;49.20;11.60;99608.00;;;;329180;29;93353;-89
2021/04/05 00:27:02;;;;;;;4.05;0.90;;;11.30;49.20;11.70;99611.00;;;;335169;29;83389;-90
2021/04/05 00:27:13;;;;;;;3.28;1.08;;;11.40;49.30;11.60;99610.00;;;;332823;29;96736;-89
2021/04/05 00:27:26;;;;;;;3.38;1.05;;;11.40;49.20;11.70;99607.00;;;;328429;29;83543;-90
2021/04/05 00:27:38;;;;;;;3.53;0.90;;;11.40;49.20;11.60;99605.00;;;;327702;29;94689;-90
2021/04/05 00:27:50;;;;;;;3.18;0.70;;;11.40;49.20;11.60;99610.00;;;;329754;29;83945;-90
2021/04/05 00:28:01;;;;;;;2.97;0.70;;;11.40;49.20;11.50;99609.00;;;;330603;29;93611;-90
2021/04/05 00:28:13;;;;;;;2.35;0.80;;;11.40;49.10;11.50;99610.00;;;;331763;29;84310;-90
2021/04/05 00:28:24;;;;;;;2.47;0.95;;;11.40;49.10;11.50;99613.00;;;;330323;29;97309;-90
2021/04/05 00:28:36;;;;;;;3.20;0.98;;;11.40;49.10;11.50;99611.00;;;;328292;29;83423;-90
2021/04/05 00:28:48;;;;;;;3.25;0.82;;;11.40;49.10;11.40;99614.00;;;;329140;29;93350;-90
2021/04/05 00:29:00;;;;;;;3.78;0.80;;;11.40;49.00;11.20;99613.00;;;;329557;29;84488;-90
2021/04/05 00:29:12;;;;;;;4.00;0.80;;;11.40;48.90;11.10;99612.00;;;;330327;29;96933;-89
2021/04/05 00:29:24;;;;;;;4.07;0.82;;;11.30;48.90;11.00;99609.00;;;;330938;29;84522;-89
2021/04/05 00:29:36;;;;;;;4.38;0.90;;;11.30;48.90;11.20;99609.00;;;;332823;29;96245;-90
2021/04/05 00:29:47;;;;;;;5.10;1.08;;;11.30;49.50;11.30;99605.00;;;;332179;29;83727;-90
2021/04/05 00:29:58;;;;;;;4.18;1.00;;;11.20;49.00;11.40;99604.00;;;;332980;29;93478;-89
2021/04/05 00:30:20;;;;;;;3.40;0.93;;;11.30;49.10;11.50;99606.00;;;;329771;28;83804;-89
2021/04/05 00:30:34;;;;;;;2.63;1.17;;;11.30;49.00;11.50;99609.00;;;;331424;28;97265;-89
2021/04/05 00:30:45;;;;;;;3.67;1.20;;;11.30;49.00;11.30;99609.00;;;;338701;28;85071;-90
2021/04/05 00:30:57;;;;;;;3.97;1.20;;;11.30;49.50;11.10;99614.00;;;;331266;29;96770;-90
2021/04/05 00:31:09;;;;;;;4.13;1.30;;;11.30;49.00;11.00;99610.00;;;;331057;29;84161;-90
2021/04/05 00:31:20;;;;;;;2.80;1.00;;;11.20;49.00;10.90;99612.00;;;;332549;29;96945;-90
2021/04/05 00:31:31;;;;;;;2.63;0.90;;;11.10;49.00;11.00;99612.00;;;;333341;29;84536;-90
2021/04/05 00:31:43;;;;;;;2.50;0.73;;;11.10;49.10;11.20;99607.00;;;;332889;29;95669;-90
2021/04/05 00:31:54;;;;;;;3.15;0.80;;;11.10;49.00;11.10;99611.00;;;;330962;29;84578;-90
2021/04/05 00:32:06;;;;;;;3.20;0.85;;;11.10;49.30;11.10;99599.00;;;;331566;29;96963;-89
2021/04/05 00:32:17;;;;;;;2.80;0.80;;;11.10;49.50;11.00;99606.00;;;;329749;29;84415;-90
2021/04/05 00:32:29;;;;;;;3.00;0.88;;;11.10;49.40;11.10;99607.00;;;;330265;29;97950;-89
2021/04/05 00:32:40;;;;;;;3.20;1.08;;;11.10;49.30;11.30;99606.00;;;;332223;29;84994;-90
2021/04/05 00:32:53;;;;;;;2.78;1.00;;;11.10;49.40;11.30;99603.00;;;;332922;28;94972;-89
2021/04/05 00:33:05;;;;;;;2.45;0.68;;;11.10;49.40;11.30;99609.00;;;;332360;29;84802;-89
2021/04/05 00:33:17;;;;;;;2.97;0.70;;;11.10;49.30;11.40;99608.00;;;;334122;29;96637;-90
2021/04/05 00:33:28;;;;;;;2.83;0.80;;;11.10;49.30;11.20;99609.00;;;;333270;29;85005;-90
2021/04/05 00:33:39;;;;;;;2.08;0.80;;;11.10;49.40;11.10;99608.00;;;;330383;29;94373;-90
2021/04/05 00:33:51;;;;;;;2.25;0.77;;;11.10;49.40;11.20;99613.00;;;;333503;28;82705;-89
2021/04/05 00:34:02;;;;;;;2.42;0.63;;;11.10;49.70;11.10;99616.00;;;;329995;29;95175;-90
2021/04/05 00:34:14;;;;;;;2.74;0.52;;;11.10;49.80;11.10;99607.00;;;;332327;29;83872;-90
2021/04/05 00:34:25;;;;;;;2.13;0.47;;;11.10;49.70;11.10;99615.00;;;;328994;29;96724;-90
2021/04/05 00:34:37;;;;;;;3.25;0.57;;;11.10;49.80;10.90;99613.00;;;;332200;29;83436;-90
2021/04/05 00:34:48;;;;;;;4.20;0.70;;;11.00;49.70;11.00;99625.00;;;;329104;28;95717;-90
2021/04/05 00:35:01;;;;;;;3.70;0.93;;;11.00;49.60;11.00;99614.00;;;;332236;29;83864;-90
2021/04/05 00:35:17;;;;;;;3.08;0.95;;;11.00;49.60;11.00;99611.00;;;;331600;29;96675;-90
2021/04/05 00:35:31;;;;;;;2.33;0.82;;;11.00;49.60;11.10;99619.00;;;;330874;29;84758;-89
2021/04/05 00:35:43;;;;;;;2.30;0.70;;;11.00;49.50;11.10;99612.00;;;;327843;29;96158;-89
2021/04/05 00:35:55;;;;;;;2.97;0.70;;;11.00;49.50;10.90;99620.00;;;;331012;29;83525;-90
2021/04/05 00:36:07;;;;;;;3.20;0.82;;;10.90;49.60;10.80;99617.00;;;;330394;29;95630;-89
2021/04/05 00:36:19;;;;;;;3.65;0.90;;;10.90;49.60;10.80;99612.00;;;;336417;28;83344;-90
2021/04/05 00:36:30;;;;;;;3.92;0.90;;;10.90;49.70;10.70;99612.00;;;;336919;28;97236;-90
2021/04/05 00:36:42;;;;;;;4.07;0.63;;;10.80;49.80;10.70;99614.00;;;;330972;29;84855;-89
2021/04/05 00:36:53;;;;;;;3.10;0.60;;;10.80;49.80;10.70;99615.00;;;;331505;28;96964;-89
2021/04/05 00:37:04;;;;;;;1.90;0.60;;;10.80;50.30;10.70;99621.00;;;;330223;29;84253;-90
2021/04/05 00:37:16;;;;;;;1.92;0.60;;;10.80;49.80;10.80;99610.00;;;;331972;28;94643;-89
2021/04/05 00:37:27;;;;;;;2.60;0.95;;;10.80;49.90;10.80;99619.00;;;;332272;29;83626;-89
2021/04/05 00:37:38;;;;;;;3.55;1.10;;;10.80;50.00;10.90;99609.00;;;;334112;29;96507;-90
2021/04/05 00:37:50;;;;;;;3.75;1.15;;;10.80;49.80;11.00;99614.00;;;;330990;29;84793;-89
2021/04/05 00:38:07;;;;;;;3.17;0.90;;;10.80;49.80;10.90;99617.00;;;;331650;29;94399;-90
2021/04/05 00:38:18;;;;;;;3.15;0.90;;;10.80;50.00;11.00;99614.00;;;;332346;29;83590;-89
2021/04/05 00:38:30;;;;;;;2.67;0.70;;;10.80;49.90;11.00;99624.00;;;;332807;29;97906;-90
2021/04/05 00:38:41;;;;;;;3.35;0.80;;;10.80;49.90;11.00;99619.00;;;;330792;29;84558;-90
2021/04/05 00:38:54;;;;;;;3.35;1.00;;;10.80;49.90;11.10;99617.00;;;;331416;29;96185;-90
2021/04/05 00:39:06;;;;;;;3.03;1.00;;;10.80;49.90;11.20;99623.00;;;;332339;28;83700;-89
2021/04/05 00:39:17;;;;;;;3.67;1.15;;;10.90;49.90;11.20;99622.00;;;;330257;29;97161;-89
2021/04/05 00:39:29;;;;;;;3.63;1.00;;;10.90;49.90;11.10;99621.00;;;;337756;28;83397;-89
2021/04/05 00:39:41;;;;;;;2.30;0.77;;;10.90;49.90;10.90;99614.00;;;;331650;29;94640;-90
2021/04/05 00:39:53;;;;;;;2.75;0.70;;;10.90;49.90;10.80;99617.00;;;;337663;28;84433;-90
2021/04/05 00:40:10;;;;;;;3.15;0.80;;;10.80;49.90;10.80;99618.00;;;;334247;28;97045;-90
2021/04/05 00:40:34;;;;;;;3.45;1.08;;;10.80;49.90;10.70;99615.00;;;;331027;29;84666;-89
2021/04/05 00:41:02;;;;;;;2.92;0.93;;;10.80;49.90;10.90;99606.00;;;;329980;28;97079;-90
2021/04/05 00:41:14;;;;;;;2.28;0.60;;;10.80;49.80;11.00;99618.00;;;;339015;28;83320;-89
2021/04/05 00:41:26;;;;;;;2.55;0.70;;;10.80;50.00;11.00;99613.00;;;;337000;28;96890;-89
2021/04/05 00:41:37;;;;;;;2.50;0.90;;;10.80;49.90;10.90;99612.00;;;;338884;28;85083;-91
2021/04/05 00:41:48;;;;;;;3.15;0.88;;;10.80;49.90;11.00;99611.00;;;;337004;28;97207;-89
2021/04/05 00:42:00;;;;;;;2.60;0.77;;;10.70;49.80;11.10;99615.00;;;;340327;28;83454;-89
2021/04/05 00:42:11;;;;;;;2.38;0.73;;;10.80;49.90;11.20;99613.00;;;;338434;28;96844;-90
2021/04/05 00:42:22;;;;;;;2.40;0.93;;;10.80;50.00;11.20;99612.00;;;;339091;28;83592;-89
2021/04/05 00:42:34;;;;;;;3.15;1.10;;;10.80;50.00;11.20;99616.00;;;;332829;29;97264;-89
2021/04/05 00:42:45;;;;;;;4.22;1.15;;;10.80;50.00;11.10;99614.00;;;;338741;28;83444;-90
2021/04/05 00:42:57;;;;;;;4.10;1.05;;;10.80;50.00;11.10;99612.00;;;;331379;29;96498;-89
2021/04/05 00:43:12;;;;;;;4.30;1.10;;;10.80;49.90;11.00;99619.00;;;;330981;29;83365;-90
2021/04/05 00:43:23;;;;;;;3.60;1.00;;;10.80;50.00;11.00;99620.00;;;;330097;29;97068;-90
2021/04/05 00:43:40;;;;;;;2.70;0.88;;;10.80;50.10;11.20;99611.00;;;;332071;29;84622;-89
2021/04/05 00:43:52;;;;;;;3.20;0.90;;;10.80;50.00;11.10;99605.00;;;;330312;29;96755;-90
2021/04/05 00:44:03;;;;;;;3.58;0.93;;;10.80;49.90;11.20;99609.00;;;;332756;29;83590;-89
2021/04/05 00:44:15;;;;;;;2.75;0.93;;;10.80;49.80;11.10;99619.00;;;;330313;29;97077;-90
2021/04/05 00:44:26;;;;;;;2.60;0.80;;;10.80;49.80;11.10;99607.00;;;;328460;29;83665;-90
2021/04/05 00:44:38;;;;;;;2.45;0.90;;;10.80;50.00;11.10;99609.00;;;;327846;29;95952;-90
2021/04/05 00:44:49;;;;;;;2.50;1.23;;;10.90;50.10;11.30;99604.00;;;;332287;29;83463;-89
2021/04/05 00:45:06;;;;;;;2.33;1.25;;;10.90;50.20;11.20;99608.00;;;;328721;29;97043;-90
2021/04/05 00:45:17;;;;;;;4.90;1.02;;;10.90;50.10;11.10;99605.00;;;;332199;29;84840;-90
2021/04/05 00:45:29;;;;;;;4.70;0.90;;;10.90;50.00;11.10;99603.00;;;;331448;29;95934;-87
2021/04/05 00:45:41;;;;;;;3.67;0.77;;;10.90;49.90;11.10;99609.00;;;;328525;29;83424;-90
2021/04/05 00:45:52;;;;;;;2.33;0.73;;;10.90;49.80;11.20;99601.00;;;;329015;29;97596;-90
2021/04/05 00:46:04;;;;;;;2.65;0.68;;;10.90;50.40;11.20;99597.00;;;;330028;29;83789;-89
2021/04/05 00:46:25;;;;;;;3.17;0.90;;;10.90;49.90;11.30;99606.00;;;;328935;29;96832;-90
2021/04/05 00:46:36;;;;;;;4.07;1.25;;;11.00;49.90;11.20;99604.00;;;;332220;28;84087;-89
2021/04/05 00:46:48;;;;;;;3.70;1.27;;;10.90;49.60;11.10;99609.00;;;;329032;29;96757;-90
2021/04/05 00:46:59;;;;;;;3.75;1.08;;;11.00;49.60;11.10;99606.00;;;;329754;29;84903;-89
2021/04/05 00:47:11;;;;;;;2.55;0.80;;;11.00;49.70;11.10;99606.00;;;;332873;29;96823;-90
2021/04/05 00:47:23;;;;;;;3.00;0.82;;;11.00;49.80;11.10;99602.00;;;;333595;29;83655;-90
2021/04/05 00:47:38;;;;;;;2.97;1.05;;;11.00;49.90;11.00;99605.00;;;;330204;29;97221;-90
2021/04/05 00:47:51;;;;;;;3.63;1.27;;;11.00;49.90;11.10;99603.00;;;;332033;29;85008;-89
2021/04/05 00:48:03;;;;;;;3.33;1.10;;;11.00;49.70;11.20;99602.00;;;;332845;29;96456;-89
2021/04/05 00:48:15;;;;;;;2.90;0.90;;;10.90;49.60;11.30;99605.00;;;;332258;29;84880;-90
2021/04/05 00:48:27;;;;;;;2.45;0.95;;;11.00;49.70;11.20;99601.00;;;;329182;29;95451;-90
2021/04/05 00:48:39;;;;;;;2.38;0.77;;;11.00;49.80;11.30;99597.00;;;;329668;29;83479;-90
2021/04/05 00:48:52;;;;;;;3.35;0.80;;;11.00;49.80;11.30;99605.00;;;;332807;28;95594;-89
2021/04/05 00:49:05;;;;;;;5.57;0.75;;;11.00;49.80;11.20;99606.00;;;;333245;29;82725;-89
2021/04/05 00:49:16;;;;;;;5.00;0.88;;;11.00;49.80;11.20;99600.00;;;;330278;29;96905;-89
2021/04/05 00:49:28;;;;;;;3.28;1.08;;;11.00;49.80;11.30;99603.00;;;;330925;29;83735;-89
2021/04/05 00:49:39;;;;;;;2.05;1.10;;;11.00;49.70;11.30;99601.00;;;;330328;29;97783;-90
2021/04/05 00:49:50;;;;;;;3.28;1.10;;;11.00;49.80;11.40;99604.00;;;;332104;29;84688;-90
2021/04/05 00:50:27;;;;;;;3.45;0.90;;;11.00;49.80;11.40;99601.00;;;;331512;29;94623;-89
2021/04/05 00:51:01;;;;;;;2.30;0.90;;;11.00;49.80;11.40;99600.00;;;;330765;28;85241;-90
2021/04/05 00:51:14;;;;;;;3.92;1.00;;;11.10;49.40;11.40;99601.00;;;;332638;29;95853;-90
2021/04/05 00:51:26;;;;;;;4.07;0.95;;;11.10;49.80;11.20;99612.00;;;;329787;29;83538;-89
2021/04/05 00:51:38;;;;;;;3.60;0.98;;;11.10;49.90;11.40;99595.00;;;;331559;28;96180;-89
2021/04/05 00:51:49;;;;;;;3.53;0.98;;;11.00;49.70;11.40;99600.00;;;;328534;29;84787;-89
2021/04/05 00:52:03;;;;;;;2.38;0.80;;;11.10;49.70;11.50;99600.00;;;;331063;28;97847;-89
2021/04/05 00:52:14;;;;;;;2.67;0.70;;;11.10;49.90;11.60;99599.00;;;;330864;29;84477;-89
2021/04/05 00:52:26;;;;;;;2.67;0.65;;;11.10;50.00;11.40;99601.00;;;;327902;29;96271;-90
2021/04/05 00:52:37;;;;;;;2.72;0.70;;;11.10;49.90;11.30;99596.00;;;;329734;29;84745;-90
2021/04/05 00:52:52;;;;;;;2.83;0.70;;;11.10;49.70;11.40;99597.00;;;;331453;29;97236;-90
2021/04/05 00:53:05;;;;;;;4.43;0.90;;;11.10;49.60;11.50;99596.00;;;;330331;28;83482;-89
2021/04/05 00:53:18;;;;;;;4.82;1.40;;;11.10;49.50;11.50;99592.00;;;;330212;29;95893;-89
2021/04/05 00:53:35;;;;;;;2.92;1.30;;;11.10;49.50;11.50;99600.00;;;;331082;29;83705;-89
2021/04/05 00:53:47;;;;;;;1.98;0.77;;;11.10;49.50;11.50;99599.00;;;;330352;29;97389;-90
2021/04/05 00:53:59;;;;;;;2.30;0.63;;;11.10;49.50;11.50;99605.00;;;;332012;29;85083;-89
2021/04/05 00:54:10;;;;;;;1.63;0.55;;;11.10;49.40;11.50;99598.00;;;;328870;29;97602;-89
2021/04/05 00:54:22;;;;;;;2.08;0.75;;;11.20;49.50;11.50;99601.00;;;;329738;29;84695;-90
2021/04/05 00:54:33;;;;;;;2.25;1.05;;;11.20;49.50;11.60;99596.00;;;;328989;29;95659;-89
2021/04/05 00:54:45;;;;;;;2.45;1.15;;;11.20;49.50;11.50;99598.00;;;;330914;29;84875;-89
2021/04/05 00:55:00;;;;;;;2.65;1.35;;;11.20;49.60;11.40;99602.00;;;;329217;29;96729;-89
2021/04/05 00:55:12;;;;;;;2.78;1.15;;;11.20;49.50;11.30;99601.00;;;;335103;28;83569;-89
2021/04/05 00:55:25;;;;;;;2.63;0.85;;;11.20;49.50;11.20;99605.00;;;;330297;29;95797;-89
2021/04/05 00:55:38;;;;;;;4.85;0.82;;;11.20;49.70;11.40;99599.00;;;;329618;29;84670;-89
2021/04/05 00:55:49;;;;;;;4.70;0.75;;;11.20;49.80;11.40;99601.00;;;;329135;29;94162;-89
2021/04/05 00:56:01;;;;;;;2.45;0.73;;;11.20;50.10;11.30;99606.00;;;;331020;29;82527;-90
2021/04/05 00:56:20;;;;;;;2.63;0.80;;;11.20;49.50;11.10;99610.00;;;;330285;29;98089;-89
2021/04/05 00:56:31;;;;;;;2.63;0.80;;;11.20;49.40;11.20;99598.00;;;;333573;29;84363;-89
2021/04/05 00:56:42;;;;;;;2.15;0.80;;;11.20;49.50;11.20;99603.00;;;;331528;29;96672;-89
2021/04/05 00:56:54;;;;;;;2.42;0.80;;;11.20;49.60;11.30;99606.00;;;;333505;29;83797;-88